x

9441102 - Westport, Wa (wptw1) Weather Station

9:36pm - Sat 23rd May 2015 All times are PDT. -7 hours from GMT.

  • Wind
    7mph, 9mph gusts
  • Sea Temp 55°f
  • 空気 Temp 52°f
  • Sea Pressure 1023mb
  • 9441102 - Westport, Wa
  • 9441102 - Westport, Wa

More Historic Weather Station data

Upgrade to MSW Pro to gain access to the past 30 days of data for over 8000 Wavebouys and Weather Stations around the globe.

Join Pro

Comparision Forecast

View Surf forecast
   
Sat 05/23 9:36pm 7 9 mph 1023mb 55f 52f
9:30pm 7 8 mph 1023mb 55f 52f
9:24pm 8 9 mph 1022.9mb 55f 53f
9:18pm 6 7 mph 1022.9mb 55f 52f
9:12pm 6 7 mph 1022.9mb 54f 52f
9:06pm 7 8 mph 1022.9mb 54f 52f
9:00pm 7 8 mph 1022.9mb 54f 52f
8:36pm 10 11 mph 1022.9mb 54f 53f
8:30pm 10 11 mph 1022.8mb 54f 53f
8:24pm 7 8 mph 1022.8mb 53f 53f
8:18pm 6 8 mph 1022.7mb 53f 53f
8:12pm 8
mph
1022.7mb 53f 53f
8:06pm 8 10 mph 1022.8mb 54f 53f
8:00pm 9 10 mph 1022.8mb 54f 54f
7:36pm 8 10 mph 1022.9mb 53f 53f
7:30pm 7 9 mph 1022.9mb 53f 53f
7:24pm 8 9 mph 1022.8mb 53f 54f
7:18pm 8 9 mph 1022.8mb 53f 53f
7:12pm 6 8 mph 1022.7mb 53f 54f
7:06pm 8 10 mph 1022.7mb 53f 54f
7:00pm 8 10 mph 1022.7mb 53f 54f
6:36pm 8 10 mph 1022.8mb 53f 55f
6:30pm 6 8 mph 1022.7mb 53f 54f
6:24pm 7 8 mph 1022.7mb 53f 54f
6:18pm 7 9 mph 1022.7mb 53f 54f
6:12pm 8 9 mph 1022.7mb 53f 54f
6:06pm 8 9 mph 1022.8mb 53f 54f
6:00pm 8 10 mph 1022.8mb 54f 54f
5:36pm 9 11 mph 1023mb 54f 55f
5:30pm 8 10 mph 1023.1mb 54f 55f
5:24pm 8 9 mph 1023.1mb 54f 55f
5:18pm 7 10 mph 1023mb 54f 54f
5:12pm 8 10 mph 1023mb 54f 55f
5:06pm 8 10 mph 1023mb 54f 55f
5:00pm 8 9 mph 1023mb 54f 55f
4:36pm 10 13 mph 1023.3mb 54f 55f
4:30pm 11 13 mph 1023.3mb 54f 55f
4:24pm 10 13 mph 1023.3mb 54f 55f
4:18pm 9 10 mph 1023.3mb 54f 55f
4:12pm 9 10 mph 1023.3mb 54f 55f
4:06pm 8 9 mph 1023.4mb 54f 55f
4:00pm 6 7 mph 1023.5mb 54f 54f
3:36pm 7 8 mph 1023.7mb 54f 54f
3:30pm 8 10 mph 1023.6mb 54f 55f
3:24pm 7 8 mph 1023.7mb 54f 55f
3:18pm 7 8 mph 1023.6mb 54f 55f
3:12pm 8 9 mph 1023.6mb 54f 55f
3:06pm 7 9 mph 1023.7mb 54f 55f
3:00pm 8 10 mph 1023.7mb 54f 55f
2:36pm 8 9 mph 1023.6mb 53f 54f
2:30pm 8 9 mph 1023.6mb 53f 54f
2:24pm 7 8 mph 1023.6mb 53f 54f
2:18pm 8 10 mph 1023.6mb 53f 54f
2:12pm 9 13 mph 1023.5mb 53f 55f
2:06pm 9 11 mph 1023.6mb 53f 55f
2:00pm 9 10 mph 1023.6mb 53f 54f
1:36pm 9 10 mph 1023.5mb 53f 55f
1:30pm 9 10 mph 1023.4mb 53f 55f
1:24pm 10
mph
1023.4mb 53f 54f
1:18pm 9 10 mph 1023.3mb 53f 54f
1:12pm 9 11 mph 1023.2mb 53f 54f
1:06pm 8 10 mph 1023.3mb 53f 54f
1:00pm 9 10 mph 1023.2mb 53f 53f
12:36pm 8 10 mph 1023.1mb 53f 53f
12:30pm 8 10 mph 1023.1mb 53f 53f
12:24pm 9 10 mph 1023.1mb 53f 54f
12:18pm 10
mph
1023.1mb 53f 54f
12:12pm 9 10 mph 1023.1mb 54f 53f
12:06pm 9 10 mph 1023.1mb 54f 53f
12:00pm 10 11 mph 1023.1mb 54f 53f
11:36am 10 13 mph 1022.8mb 54f 54f
11:30am 10 13 mph 1022.7mb 54f 54f
11:24am 11 13 mph 1022.7mb 54f 53f
11:18am 11 13 mph 1022.7mb 54f 53f
11:12am 10 13 mph 1022.6mb 54f 53f
11:06am 10 11 mph 1022.5mb 54f 53f
11:00am 11 13 mph 1022.5mb 54f 53f
10:36am 11 13 mph 1022.3mb 54f 53f
10:30am 11 13 mph 1022.2mb 54f 53f
10:24am 13 15 mph 1022.2mb 54f 53f
10:18am 15 16 mph 1022.3mb 54f 53f
10:12am 13 14 mph 1022.2mb 53f 52f
10:06am 11 13 mph 1022.3mb 53f 52f
10:00am 13 14 mph 1022.2mb 53f 52f
9:36am 13 16 mph 1022.2mb 53f 52f
9:30am 13 14 mph 1022.2mb 53f 52f
9:24am 10 13 mph 1022.1mb 53f 52f
9:18am 10 13 mph 1022.1mb 53f 52f
9:12am 13 14 mph 1022mb 53f 52f
9:06am 14 15 mph 1022mb 53f 52f
9:00am 14 15 mph 1021.9mb 53f 52f
8:36am 11 14 mph 1021.7mb 53f 52f
8:30am 13 15 mph 1021.8mb 53f 52f
8:24am 14 15 mph 1021.7mb 53f 52f
8:18am 11 13 mph 1021.7mb 53f 52f
8:12am 10 13 mph 1021.8mb 53f 52f
8:06am 9 11 mph 1021.8mb 53f 52f
8:00am 11 13 mph 1021.8mb 53f 52f
7:36am 9 10 mph 1021.4mb 53f 52f
7:30am 8 9 mph 1021.5mb 53f 52f
7:24am 8 9 mph 1021.4mb 53f 52f
7:18am 8 9 mph 1021.4mb 53f 52f
7:12am 9
mph
1021.3mb 53f 52f
7:06am 7 8 mph 1021.3mb 53f 52f
7:00am 7 9 mph 1021.2mb 53f 52f
6:36am 10 11 mph 1021mb 52f 52f
6:30am 8 10 mph 1021mb 52f 52f
6:24am 8 9 mph 1020.9mb 52f 52f
6:18am 8 10 mph 1020.8mb 52f 52f
6:12am 8 9 mph 1020.7mb 52f 52f
6:06am 9 10 mph 1020.7mb 52f 52f
6:00am 9 10 mph 1020.7mb 52f 52f
5:36am 10 11 mph 1020.6mb 52f 52f
5:30am 8 10 mph 1020.6mb 52f 52f
5:24am 8 10 mph 1020.5mb 52f 52f
5:18am 9 10 mph 1020.4mb 52f 52f
5:12am 9 10 mph 1020.4mb 52f 52f
5:06am 7 9 mph 1020.3mb 52f 52f
5:00am 7 8 mph 1020.3mb 52f 52f
4:36am 9 10 mph 1020.2mb 52f 51f
4:30am 10 11 mph 1020.3mb 52f 51f
4:24am 9 11 mph 1020.3mb 52f 52f
4:18am 10 11 mph 1020.3mb 52f 52f
4:12am 10 13 mph 1020.4mb 52f 52f
4:06am 13 14 mph 1020.4mb 52f 52f
4:00am 13 14 mph 1020.5mb 52f 52f
3:36am 8
mph
1020.6mb 53f 52f
3:30am 9 10 mph 1020.7mb 53f 52f
3:24am 7 8 mph 1020.6mb 53f 52f
3:18am 6 8 mph 1020.6mb 53f 52f
3:12am 7 8 mph 1020.4mb 53f 52f
3:06am 7 9 mph 1020.4mb 53f 52f
3:00am 8
mph
1020.3mb 53f 52f
2:36am 8 9 mph 1020.1mb 53f 52f
2:30am 8 9 mph 1020.1mb 53f 52f
2:24am 8 9 mph 1020.1mb 53f 52f
2:18am 8 9 mph 1020.1mb 53f 52f
2:12am 8 9 mph 1020mb 53f 52f
2:06am 8 9 mph 1019.9mb 53f 52f
2:00am 7 9 mph 1019.9mb 53f 52f
1:36am 8 10 mph 1019.7mb 53f 52f
1:30am 8 9 mph 1019.7mb 53f 52f
1:24am 8 9 mph 1019.7mb 53f 52f
1:18am 8 9 mph 1019.7mb 53f 52f
1:12am 8 9 mph 1019.7mb 53f 52f
1:06am 8
mph
1019.7mb 53f 52f
1:00am 7 8 mph 1019.7mb 53f 52f
12:36am 7 8 mph 1019.6mb 53f 52f
12:30am 8 9 mph 1019.6mb 53f 52f
12:24am 9 10 mph 1019.5mb 53f 52f
12:18am 10
mph
1019.5mb 53f 52f
12:12am 11
mph
1019.5mb 53f 52f
12:06am 10 11 mph 1019.5mb 53f 52f
12:00am 8 10 mph 1019.5mb 53f 52f
Fri 05/22 11:36pm 8 9 mph 1019.3mb 53f 52f
11:30pm 8 9 mph 1019.3mb 53f 52f
11:24pm 7 8 mph 1019.3mb 53f 52f
11:18pm 7 8 mph 1019.2mb 53f 52f
11:12pm 7 8 mph 1019.2mb 53f 52f
11:06pm 7 8 mph 1019.2mb 53f 53f
11:00pm 7 8 mph 1019.2mb 53f 53f
10:36pm 7 8 mph 1019.3mb 53f 53f
10:30pm 7 8 mph 1019.2mb 53f 53f
10:24pm 7 8 mph 1019.2mb 53f 53f
10:18pm 7 8 mph 1019.2mb 53f 53f
10:12pm 8
mph
1019.1mb 53f 53f
10:06pm 7 8 mph 1019mb 53f 53f
10:00pm 5 7 mph 1018.9mb 53f 53f
9:54pm 5 6 mph 1018.9mb 53f 53f
9:48pm 6 7 mph 1018.9mb 54f 53f
9:36pm 5 6 mph 1018.9mb 54f 53f
9:30pm 6 7 mph 1018.9mb 54f 53f
9:24pm 6 7 mph 1018.9mb 54f 53f
9:18pm 6 7 mph 1018.9mb 54f 53f
9:12pm 6 8 mph 1018.8mb 53f 53f
9:06pm 7 8 mph 1018.7mb 53f 53f
9:00pm 7 8 mph 1018.6mb 53f 52f
8:54pm 7 8 mph 1018.5mb 53f 53f
8:48pm 7 8 mph 1018.5mb 53f 52f
8:36pm 7 9 mph 1018.5mb 53f 53f
8:30pm 8 10 mph 1018.4mb 53f 53f
8:24pm 8 9 mph 1018.3mb 53f 53f
8:18pm 7 9 mph 1018.3mb 53f 53f
8:12pm 8 9 mph 1018.2mb 53f 53f
8:06pm 8
mph
1018.2mb 53f 53f
8:00pm 7 8 mph 1018.2mb 53f 53f
7:54pm 6 8 mph 1018.1mb 53f 53f
7:48pm 7 8 mph 1018.1mb 53f 53f
7:36pm 7 8 mph 1018.1mb 52f 53f
7:30pm 7 8 mph 1018.2mb 52f 53f
7:24pm 6 7 mph 1018.2mb 52f 53f
7:18pm 7 8 mph 1018.2mb 52f 53f
7:12pm 6 8 mph 1018.2mb 52f 53f
7:06pm 6 7 mph 1018.1mb 53f 53f
7:00pm 6 8 mph 1018.1mb 52f 53f
6:54pm 7 8 mph 1018.1mb 53f 53f
6:48pm 6 8 mph 1018mb 53f 53f
6:36pm 8 9 mph 1017.9mb 52f 53f
6:30pm 6 8 mph 1017.9mb 52f 53f
6:24pm 7 8 mph 1017.8mb 52f 53f
6:18pm 7 9 mph 1017.9mb 52f 53f
6:12pm 6 8 mph 1017.9mb 52f 53f
6:06pm 7 9 mph 1017.9mb 52f 54f
6:00pm 7 9 mph 1017.9mb 52f 53f
5:54pm 8 9 mph 1017.9mb 52f 53f
5:48pm 9 10 mph 1017.8mb 52f 54f
5:36pm 8 10 mph 1017.7mb 52f 54f
5:30pm 8 10 mph 1017.7mb 52f 54f
5:24pm 8 10 mph 1017.8mb 52f 54f
5:18pm 9 10 mph 1017.8mb 52f 54f
5:12pm 7 11 mph 1017.8mb 52f 54f
5:06pm 7 9 mph 1017.8mb 52f 54f
5:00pm 7 9 mph 1017.8mb 53f 54f
4:54pm 7 9 mph 1017.8mb 53f 54f
4:48pm 8 10 mph 1017.8mb 53f 54f
4:36pm 8 11 mph 1017.7mb 53f 54f
4:30pm 8 10 mph 1017.7mb 53f 54f
4:24pm 8 11 mph 1017.7mb 53f 54f
4:18pm 9 11 mph 1017.7mb 54f 54f
4:12pm 9 10 mph 1017.7mb 54f 54f
4:06pm 7 9 mph 1017.7mb 54f 54f
4:00pm 7 11 mph 1017.7mb 54f 54f
3:54pm 8 10 mph 1017.7mb 54f 54f
3:48pm 8 10 mph 1017.7mb 54f 54f
3:36pm 8 10 mph 1017.6mb 53f 54f
3:30pm 8 10 mph 1017.5mb 53f 54f
3:24pm 9 10 mph 1017.6mb 53f 54f
3:18pm 8 10 mph 1017.6mb 53f 54f
3:12pm 8 11 mph 1017.7mb 53f 54f
3:06pm 9 11 mph 1017.6mb 53f 54f
3:00pm 8 11 mph 1017.6mb 53f 54f
2:54pm 8 11 mph 1017.6mb 53f 54f
2:48pm 9 11 mph 1017.6mb 53f 54f
2:36pm 9 10 mph 1017.7mb 53f 54f
2:30pm 9 10 mph 1017.7mb 53f 54f
2:24pm 8 9 mph 1017.7mb 53f 54f
2:18pm 7 9 mph 1017.7mb 53f 54f
2:12pm 8 9 mph 1017.7mb 53f 54f
2:06pm 7 10 mph 1017.7mb 53f 54f
2:00pm 7 9 mph 1017.8mb 53f 54f
1:54pm 8 10 mph 1017.8mb 53f 53f
1:48pm 7 9 mph 1017.8mb 53f 53f
1:36pm 7 9 mph 1017.8mb 53f 53f
1:30pm 7 9 mph 1017.7mb 53f 53f
1:24pm 6 8 mph 1017.7mb 53f 53f
1:18pm 7 9 mph 1017.7mb 53f 53f
1:12pm 7 8 mph 1017.7mb 53f 53f
1:06pm 8 9 mph 1017.7mb 53f 53f
1:00pm 8 9 mph 1017.7mb 53f 52f
12:54pm 8 9 mph 1017.7mb 53f 53f
12:48pm 8 9 mph 1017.7mb 53f 53f
12:36pm 8 9 mph 1017.6mb 53f 52f
12:30pm 8 9 mph 1017.6mb 53f 53f
12:24pm 8 9 mph 1017.6mb 53f 52f
12:18pm 7 8 mph 1017.6mb 53f 52f
12:12pm 7
mph
1017.6mb 53f 52f
12:06pm 6 8 mph 1017.6mb 53f 52f
12:00pm 7 8 mph 1017.5mb 53f 52f
11:54am 7 8 mph 1017.5mb 53f 52f
11:48am 8 9 mph 1017.4mb 53f 52f
11:36am 8 10 mph 1017.2mb 54f 52f
11:30am 9 10 mph 1017.2mb 54f 52f
11:24am 9 10 mph 1017.1mb 54f 52f
11:18am 8 13 mph 1017.1mb 54f 52f
11:12am 9 10 mph 1017.1mb 54f 52f
11:06am 9 13 mph 1017.1mb 54f 52f
11:00am 7 9 mph 1017.1mb 54f 52f
10:54am 8 10 mph 1017mb 54f 52f
10:48am 10 13 mph 1016.9mb 54f 52f
10:36am 10 13 mph 1016.8mb 54f 52f
10:30am 13 15 mph 1016.7mb 54f 52f
10:24am 11 14 mph 1016.7mb 54f 52f
10:18am 10 11 mph 1016.6mb 54f 52f
10:12am 9 11 mph 1016.7mb 54f 52f
10:06am 9 11 mph 1016.6mb 54f 52f
10:00am 10 13 mph 1016.5mb 54f 52f
9:54am 10 13 mph 1016.5mb 54f 52f
9:48am 10 11 mph 1016.5mb 54f 52f
9:36am 9 10 mph 1016.4mb 54f 52f
9:30am 10 11 mph 1016.4mb 54f 52f
9:24am 7 9 mph 1016.3mb 54f 52f
9:18am 7
mph
1016.3mb 53f 52f
9:12am 6 7 mph 1016.3mb 53f 51f
9:06am 6 7 mph 1016.3mb 53f 52f
9:00am 6 7 mph 1016.3mb 53f 51f
8:54am 6 7 mph 1016.3mb 53f 52f
8:48am 5 7 mph 1016.3mb 53f 52f
8:36am 3 6 mph 1016.2mb 53f 51f
8:30am 5 7 mph 1016.1mb 53f 52f
8:24am 7 9 mph 1016.1mb 53f 51f
8:18am 6 8 mph 1016.1mb 53f 51f
8:12am 6 7 mph 1016mb 53f 51f
8:06am 6 9 mph 1015.9mb 53f 51f
8:00am 8 10 mph 1015.9mb 52f 52f
7:54am 8 9 mph 1015.8mb 52f 51f
7:48am 9 10 mph 1015.8mb 52f 51f
7:36am 11 15 mph 1015.6mb 52f 52f
7:30am 13 14 mph 1015.6mb 52f 52f
7:24am 11 14 mph 1015.5mb 52f 52f
7:18am 10 13 mph 1015.5mb 52f 52f
7:12am 13 14 mph 1015.4mb 52f 51f
7:06am 11 14 mph 1015.4mb 52f 51f
7:00am 10 13 mph 1015.5mb 52f 51f
6:54am 7 9 mph 1015.5mb 52f 52f
6:48am 7 9 mph 1015.5mb 52f 52f
6:36am 8 10 mph 1015.4mb 52f 52f
6:30am 8 9 mph 1015.4mb 52f 51f
6:24am 8 10 mph 1015.4mb 52f 51f
6:18am 9 10 mph 1015.3mb 52f 51f
6:12am 9 10 mph 1015.3mb 52f 51f
6:06am 9 11 mph 1015.2mb 52f 51f
6:00am 10 13 mph 1015.2mb 52f 51f
5:54am 11 14 mph 1015.1mb 52f 51f
5:48am 13 14 mph 1015mb 52f 52f
5:36am 13 14 mph 1015mb 52f 52f
5:30am 10 11 mph 1015mb 52f 51f
5:24am 10 11 mph 1015.1mb 52f 51f
5:18am 10 13 mph 1015.1mb 52f 52f
5:12am 11 14 mph 1015mb 52f 52f
5:06am 11 16 mph 1015.1mb 52f 52f
5:00am 11 14 mph 1015.1mb 52f 52f
4:54am 11 15 mph 1015mb 52f 52f
4:48am 14 16 mph 1014.9mb 52f 52f
4:36am 13 14 mph 1014.9mb 52f 52f
4:30am 11 14 mph 1015mb 52f 52f
4:24am 11 14 mph 1015mb 52f 52f
4:18am 11 13 mph 1015mb 52f 52f
4:12am 10 13 mph 1015mb 52f 52f
4:06am 11 14 mph 1015mb 52f 52f
4:00am 10 13 mph 1015mb 52f 52f
3:54am 11 13 mph 1015mb 52f 52f
3:48am 11 15 mph 1015mb 52f 52f
3:36am 13 15 mph 1014.9mb 52f 52f
3:30am 10 13 mph 1014.8mb 52f 52f
3:24am 11 13 mph 1014.8mb 52f 52f
3:18am 11 15 mph 1014.7mb 52f 52f
3:12am 11 14 mph 1014.7mb 53f 52f
3:06am 10 11 mph 1014.7mb 53f 52f
3:00am 10 11 mph 1014.7mb 53f 52f
2:54am 11 15 mph 1014.7mb 53f 52f
2:48am 14 15 mph 1014.7mb 53f 52f
2:36am 11 13 mph 1014.7mb 53f 52f
2:30am 10 13 mph 1014.7mb 53f 52f
2:24am 10 13 mph 1014.7mb 53f 52f
2:18am 10 11 mph 1014.7mb 53f 52f
2:12am 11 14 mph 1014.8mb 53f 52f
2:06am 10 13 mph 1014.9mb 53f 52f
2:00am 8 10 mph 1014.9mb 53f 52f
1:54am 10 13 mph 1014.8mb 53f 52f
1:48am 11 14 mph 1014.7mb 53f 52f
1:36am 13 14 mph 1014.6mb 53f 52f
1:30am 10 13 mph 1014.6mb 53f 52f
1:24am 9 10 mph 1014.7mb 53f 52f
1:18am 10 13 mph 1014.6mb 53f 52f
1:12am 10 11 mph 1014.6mb 53f 52f
1:06am 10 11 mph 1014.7mb 53f 52f
1:00am 11 14 mph 1014.6mb 53f 52f
12:54am 11 13 mph 1014.6mb 53f 52f
12:48am 9 13 mph 1014.5mb 53f 52f
12:36am 8 10 mph 1014.6mb 53f 52f
12:30am 9 11 mph 1014.7mb 53f 52f
12:24am 10 11 mph 1014.7mb 53f 52f
12:18am 8 10 mph 1014.7mb 53f 52f
12:12am 10 15 mph 1014.6mb 53f 52f
12:06am 11 15 mph 1014.4mb 53f 52f
12:00am 10 11 mph 1014.5mb 53f 52f
Thu 05/21 11:54pm 8 10 mph 1014.6mb 53f 52f
11:48pm 7 9 mph 1014.5mb 53f 52f
11:36pm 9 10 mph 1014.6mb 53f 52f
11:30pm 5 8 mph 1014.5mb 53f 52f
11:24pm 8 9 mph 1014.4mb 53f 52f
11:18pm 7 10 mph 1014.4mb 53f 52f
11:12pm 7 10 mph 1014.4mb 53f 52f
11:06pm 8 10 mph 1014.3mb 53f 52f
11:00pm 9 11 mph 1014.2mb 53f 52f
10:54pm 9 10 mph 1014.2mb 53f 52f
10:48pm 7 9 mph 1014.2mb 53f 52f
10:36pm 10 11 mph 1014.2mb 53f 52f
10:30pm 8 14 mph 1014.1mb 53f 52f
10:24pm 11 14 mph 1014.1mb 53f 52f
10:18pm 9 11 mph 1014mb 53f 52f
10:12pm 11 14 mph 1014mb 53f 52f
10:06pm 11 14 mph 1014mb 53f 52f
10:00pm 9 10 mph 1014.1mb 53f 52f
9:54pm 8 9 mph 1014mb 53f 52f
9:48pm 9 10 mph 1013.9mb 53f 53f
9:36pm 10 11 mph 1013.9mb 53f 53f
9:30pm 7 8 mph 1013.9mb 53f 53f
9:24pm 8 9 mph 1013.8mb 53f 52f
9:18pm 8 13 mph 1013.8mb 53f 52f
9:12pm 9 11 mph 1013.8mb 53f 52f
9:06pm 9 11 mph 1013.6mb 53f 52f
9:00pm 9 11 mph 1013.6mb 53f 52f
8:54pm 10 11 mph 1013.5mb 53f 52f
8:48pm 9 11 mph 1013.4mb 53f 52f
8:36pm 13 14 mph 1013.3mb 53f 52f
8:30pm 10 13 mph 1013.3mb 53f 52f
8:24pm 10 13 mph 1013.3mb 53f 52f
8:18pm 11 15 mph 1013.4mb 53f 53f
8:12pm 13 14 mph 1013.4mb 53f 53f
8:06pm 13 15 mph 1013.4mb 53f 53f
8:00pm 8 10 mph 1013.3mb 53f 53f
7:54pm 9
mph
1013.3mb 53f 53f
7:48pm 8 10 mph 1013.2mb 53f 53f
7:36pm 8 9 mph 1013mb 53f 53f
7:30pm 7 9 mph 1013.1mb 53f 53f
7:24pm 9 11 mph 1013.1mb 53f 53f
7:18pm 10 13 mph 1013mb 53f 53f
7:12pm 9 11 mph 1012.9mb 53f 53f
7:06pm 10 15 mph 1012.9mb 53f 53f
7:00pm 11 14 mph 1012.8mb 53f 53f
6:54pm 8 11 mph 1012.8mb 53f 53f
6:48pm 10 11 mph 1012.8mb 52f 53f
6:36pm 8 11 mph 1012.8mb 52f 53f
6:30pm 11 14 mph 1012.7mb 52f 53f
6:24pm 10 13 mph 1012.7mb 52f 53f
6:18pm 14 15 mph 1012.7mb 52f 53f
6:12pm 10 13 mph 1012.7mb 52f 53f
6:06pm 9 10 mph 1012.8mb 52f 53f
6:00pm 10 11 mph 1012.8mb 52f 53f
5:54pm 11 13 mph 1012.8mb 52f 53f
5:48pm 9 11 mph 1012.9mb 52f 53f
5:24pm  -  mph 1013.1mb 52f 53f
5:12pm  -  mph 1013mb 52f 54f
5:00pm  -  mph 1012.9mb 52f 54f
4:54pm  -  mph 1012.9mb 52f 54f
4:48pm  -  mph 1013mb 52f 54f
4:36pm 9 11 mph 1013mb 52f 54f
4:30pm 10 11 mph 1013.1mb 52f 54f
4:24pm 10 11 mph - - -
4:18pm 8 9 mph 1013.2mb 52f 53f
4:12pm 8 10 mph 1013.2mb 52f 53f
4:06pm 8 9 mph 1013.2mb 52f 53f
4:00pm 7 8 mph 1013.3mb 52f 53f
3:54pm 8 10 mph 1013.3mb 52f 53f
3:48pm 8 10 mph 1013.3mb 53f 54f
3:36pm 9 10 mph 1013.3mb 53f 54f
3:30pm 9 10 mph 1013.3mb 53f 54f
3:24pm 10 11 mph 1013.2mb 53f 54f
3:18pm 9 10 mph 1013.2mb 54f 54f
3:12pm 8 9 mph 1013.3mb 54f 54f
3:06pm 8 10 mph 1013.3mb 54f 54f
3:00pm 8 9 mph 1013.4mb 54f 54f
2:54pm 8 9 mph 1013.4mb 54f 53f
2:48pm 9 10 mph 1013.4mb 54f 54f
2:36pm 8 10 mph 1013.5mb 54f 53f
2:30pm 9 10 mph 1013.5mb 54f 54f
2:24pm 8 9 mph 1013.5mb 54f 54f
2:18pm 8 9 mph 1013.6mb 54f 53f
2:12pm 7 9 mph 1013.6mb 54f 53f
2:06pm 8 9 mph 1013.6mb 54f 53f
2:00pm 7
mph
1013.5mb 54f 53f
1:54pm 6 7 mph 1013.6mb 54f 53f
1:48pm 6 7 mph 1013.6mb 54f 53f
1:36pm 6 7 mph 1013.5mb 54f 53f
1:30pm 5 6 mph 1013.5mb 54f 53f
1:24pm 6 7 mph 1013.4mb 54f 53f
1:18pm 5 6 mph 1013.5mb 54f 53f
1:12pm 6 7 mph 1013.5mb 54f 53f
1:06pm 6 7 mph 1013.6mb 54f 53f
1:00pm 6
mph
1013.6mb 54f 53f
12:54pm 6 7 mph 1013.6mb 54f 53f
12:48pm 6 7 mph 1013.6mb 54f 53f
12:36pm 6 7 mph 1013.7mb 54f 53f
12:30pm 5 6 mph 1013.7mb 54f 52f
12:24pm 6
mph
1013.6mb 54f 52f
12:18pm 5 7 mph 1013.7mb 54f 52f
12:12pm 6 7 mph 1013.7mb 54f 52f
12:06pm 6 7 mph 1013.6mb 54f 52f
12:00pm 5 6 mph 1013.6mb 54f 52f
11:54am 6 7 mph 1013.6mb 54f 52f
11:48am 5 7 mph 1013.6mb 54f 52f
11:36am 6 7 mph 1013.5mb 54f 51f
11:30am 5 8 mph 1013.6mb 54f 51f
11:24am 6 8 mph 1013.5mb 54f 51f
11:18am 6
mph
1013.6mb 54f 51f
11:12am 5 7 mph 1013.6mb 54f 51f
11:06am 6 8 mph 1013.5mb 54f 51f
11:00am 8 9 mph 1013.5mb 54f 51f
10:54am 6 7 mph 1013.5mb 54f 51f
10:48am 6 9 mph 1013.5mb 54f 51f
10:36am 9 10 mph 1013.5mb 55f 51f
10:30am 7 10 mph 1013.5mb 55f 51f
10:24am 6 7 mph 1013.5mb 55f 51f
10:18am 7 9 mph 1013.5mb 54f 51f
10:12am 8 9 mph 1013.5mb 54f 51f
10:06am 9 11 mph 1013.4mb 54f 51f
10:00am 7 9 mph 1013.5mb 54f 51f
9:54am 7 9 mph 1013.5mb 54f 51f
9:48am 5 8 mph 1013.5mb 54f 50f
9:36am 8 10 mph 1013.5mb 54f 50f
9:30am 9 10 mph 1013.5mb 54f 51f
9:24am 7 9 mph 1013.5mb 54f 51f
9:18am 8 10 mph 1013.4mb 54f 51f
9:12am 8 9 mph 1013.5mb 54f 50f
9:06am 8 10 mph 1013.4mb 54f 50f
9:00am 7 10 mph 1013.4mb 54f 50f
8:54am 8 10 mph 1013.4mb 54f 50f
8:48am 9 10 mph 1013.3mb 54f 50f
8:36am 9 11 mph 1013.3mb 54f 50f
8:30am 8 11 mph 1013.2mb 54f 50f
8:24am 8 10 mph 1013.2mb 54f 50f
8:18am 8 11 mph 1013.2mb 54f 50f
8:12am 8 11 mph 1013.2mb 54f 50f
8:06am 9 11 mph 1013.1mb 53f 50f
8:00am 6 8 mph 1013.1mb 53f 50f
7:54am 8 11 mph 1013.1mb 53f 50f
7:48am 8 11 mph 1013mb 53f 50f
7:36am 8 11 mph 1013mb 53f 50f
7:30am 8 11 mph 1013.1mb 53f 50f
7:24am 8 11 mph 1013mb 53f 50f
7:18am 10 13 mph 1012.9mb 53f 50f
7:12am 8 10 mph 1012.9mb 53f 49f
7:06am 9 14 mph 1012.9mb 53f 50f
7:00am 10 13 mph 1012.8mb 53f 50f
6:54am 9 13 mph 1012.8mb 53f 49f
6:48am 9 10 mph 1012.8mb 53f 50f
6:36am 11 14 mph 1012.7mb 53f 50f
6:30am 10 13 mph 1012.8mb 53f 50f
6:24am 9 11 mph 1012.8mb 53f 50f
6:18am 8 10 mph 1012.8mb 53f 50f
6:12am 10 13 mph 1012.8mb 53f 50f
6:06am 10 13 mph 1012.7mb 53f 50f
6:00am 10 13 mph 1012.6mb 53f 50f
5:54am 8 10 mph 1012.6mb 53f 50f
5:48am 10 13 mph 1012.6mb 53f 50f
5:36am 8 11 mph 1012.7mb 53f 50f
5:30am 10 11 mph 1012.7mb 53f 50f
5:24am 10 13 mph 1012.7mb 52f 50f
5:18am 9 10 mph 1012.8mb 52f 50f
5:12am 9 10 mph 1012.8mb 52f 50f
5:06am 9 11 mph 1012.8mb 52f 50f
5:00am 10 13 mph 1012.8mb 52f 50f
4:54am 11 14 mph 1012.8mb 53f 50f
4:48am 10 13 mph 1012.9mb 53f 50f
4:36am 9 13 mph 1012.8mb 53f 50f
4:30am 11 14 mph 1012.8mb 52f 50f
4:24am 13 16 mph 1012.8mb 52f 50f
4:18am 13 16 mph 1012.9mb 52f 50f
4:12am 13 15 mph 1012.9mb 52f 50f
4:06am 15 17 mph 1012.9mb 52f 50f
4:00am 14 15 mph 1013mb 52f 50f
3:54am 11 14 mph 1013mb 52f 50f
3:48am 10 13 mph 1013mb 52f 50f
3:36am 10 13 mph 1012.9mb 52f 50f
3:30am 8 11 mph 1012.9mb 52f 50f
3:24am 10 15 mph 1012.9mb 52f 50f
3:18am 11 15 mph 1012.9mb 52f 50f
3:12am 13 15 mph 1012.8mb 52f 50f
3:06am 13 15 mph 1012.8mb 52f 50f
3:00am 15 17 mph 1012.8mb 52f 50f
2:54am 15 17 mph 1012.8mb 52f 50f
2:48am 11 14 mph 1012.8mb 52f 50f
2:36am 9 11 mph 1012.9mb 52f 50f
2:30am 11 15 mph 1013mb 52f 50f
2:24am 14 15 mph 1013mb 53f 50f
2:18am 13 15 mph 1013.1mb 53f 50f
2:12am 15 17 mph 1013.1mb 53f 51f
2:06am 13 14 mph 1013.1mb 53f 50f
2:00am 11 15 mph 1013.1mb 53f 51f
1:54am 14 16 mph 1013.2mb 53f 51f
1:48am 13 14 mph 1013.2mb 53f 50f
1:36am 13 15 mph 1013.3mb 53f 51f
1:30am 14 15 mph 1013.2mb 53f 50f
1:24am 13 15 mph 1013.2mb 53f 51f
1:18am 14 15 mph 1013.3mb 54f 51f
1:12am 10 13 mph - - -
1:06am 10 15 mph - - -
1:00am 9 10 mph - - -
12:54am 10 14 mph 1013.4mb 54f 51f
12:48am 14 15 mph 1013.3mb 54f 51f
12:36am 9 10 mph 1013.3mb 54f 51f
12:30am 8 11 mph 1013.2mb 54f 51f
12:24am 13 14 mph 1013.2mb 54f 51f
12:18am 11 14 mph 1013.3mb 54f 51f
12:12am 11 13 mph 1013.3mb 54f 51f
12:06am 13 15 mph 1013.3mb 54f 51f
12:00am 10 13 mph 1013.5mb 54f 51f
Wed 05/20 11:54pm 13 14 mph 1013.5mb 54f 51f
11:48pm 9 14 mph 1013.5mb 54f 51f
11:24pm  -  mph 1013.6mb 54f 51f
10:54pm  -  mph 1013.5mb 54f 51f
10:48pm  -  mph 1013.5mb 54f 51f
10:36pm 13 15 mph 1013.6mb 54f 51f
10:30pm 13 15 mph 1013.6mb 54f 51f
10:24pm 11 15 mph 1013.5mb 54f 51f
10:18pm 11 14 mph 1013.5mb 54f 51f
10:12pm 11 14 mph 1013.5mb 54f 51f
10:06pm 11 14 mph 1013.4mb 54f 51f
10:00pm 13 15 mph 1013.4mb 54f 51f
9:54pm 11 15 mph 1013.4mb 54f 51f
9:48pm 13 16 mph 1013.5mb 54f 51f
9:36pm 14 16 mph 1013.4mb 54f 51f
9:30pm 10 15 mph 1013.5mb 54f 51f
9:24pm 11 15 mph 1013.6mb 54f 51f
9:18pm 13 15 mph 1013.5mb 54f 52f
9:12pm 14 16 mph 1013.4mb 54f 52f
9:06pm 11 15 mph - - -
9:00pm 13 16 mph 1013.2mb 54f 52f
8:54pm 15 17 mph 1013.2mb 54f 52f
8:48pm 15 17 mph 1013.2mb 54f 52f
8:36pm 15 17 mph 1013.2mb 54f 52f
8:30pm 14 16 mph 1013.1mb 54f 52f
8:24pm 13 15 mph 1013.3mb 54f 52f
8:18pm 11 15 mph 1013.2mb 54f 52f
8:12pm 13 15 mph 1013.2mb 54f 52f
8:06pm 14 16 mph 1013.1mb 54f 52f
8:00pm 14 17 mph 1013mb 54f 52f
7:54pm 13 17 mph 1013.1mb 54f 52f
7:48pm 11 14 mph 1013.1mb 54f 52f
7:36pm 13 15 mph 1013.2mb 54f 52f
7:30pm 13 14 mph 1013.2mb 54f 52f
7:24pm 11 15 mph 1013.3mb 54f 52f
7:18pm 13 16 mph 1013.3mb 54f 52f
7:12pm 13 16 mph 1013.3mb 54f 52f
7:06pm 15 17 mph 1013.3mb 53f 53f
7:00pm 15 16 mph 1013.3mb 53f 53f
6:54pm 15 18 mph - - -
6:48pm 15 17 mph 1013.3mb 53f 53f
6:36pm 14 16 mph 1013.3mb 53f 53f
6:30pm 13 16 mph 1013.3mb 53f 53f
6:24pm 13 17 mph 1013.3mb 53f 53f
6:18pm 14 16 mph - - -
6:12pm 14 16 mph - - -
6:06pm 13 17 mph 1013.4mb 53f 53f
6:00pm 15 17 mph 1013.6mb 53f 53f
5:54pm 14 17 mph 1013.6mb 53f 53f
5:48pm 14 16 mph 1013.6mb 53f 53f
5:36pm 15 17 mph 1013.7mb 53f 53f
5:30pm 15 17 mph 1013.6mb 53f 53f
5:24pm 16 18 mph 1013.8mb 53f 53f
5:18pm 15 18 mph 1013.8mb 53f 53f
5:12pm 17 18 mph 1013.9mb 53f 53f
5:06pm 14 17 mph 1014mb 53f 53f
5:00pm 15 18 mph 1014.1mb 53f 53f
4:54pm 16 18 mph - - -
4:48pm 15 18 mph 1014.2mb 52f 53f
4:36pm 13 17 mph 1014.2mb 52f 54f
4:30pm 15 16 mph 1014.3mb 52f 54f
4:24pm 13 16 mph 1014.3mb 52f 54f
4:18pm 15 17 mph 1014.4mb 52f 54f
4:12pm 15 17 mph 1014.5mb 52f 54f
4:06pm 15 17 mph 1014.5mb 52f 54f
4:00pm 14 17 mph 1014.6mb 52f 54f
3:54pm 14 16 mph 1014.7mb 52f 54f
3:48pm 15 17 mph 1014.8mb 52f 54f
3:36pm 14 15 mph 1014.9mb 53f 54f
3:30pm 14 17 mph 1015mb 53f 54f
3:24pm 14 15 mph 1015mb 53f 54f
3:18pm 14 15 mph 1015.1mb 53f 54f
3:12pm 14 15 mph 1015.1mb 53f 54f
3:06pm 14 15 mph 1015.2mb 53f 54f
3:00pm 14 15 mph 1015.2mb 53f 54f
2:54pm 13 15 mph 1015.2mb 53f 55f
2:48pm 14 16 mph 1015.2mb 53f 54f
2:36pm 14 16 mph 1015.3mb 54f 54f
2:30pm 14 16 mph 1015.4mb 54f 54f
2:24pm 15 16 mph 1015.4mb 54f 54f
2:18pm 14 15 mph 1015.4mb 54f 54f
2:12pm 14 15 mph 1015.5mb 54f 54f
2:06pm 14 16 mph 1015.6mb 54f 54f
2:00pm 13 15 mph 1015.6mb 54f 54f
1:54pm 14 16 mph 1015.6mb 54f 54f
1:48pm 13 15 mph 1015.6mb 54f 54f
1:36pm 13 14 mph 1015.7mb 54f 54f
1:30pm 13 15 mph 1015.8mb 54f 54f
1:24pm 14 15 mph 1015.8mb 54f 54f
1:18pm 13 14 mph 1015.9mb 54f 54f
1:12pm 11 14 mph 1015.9mb 54f 54f
1:06pm 13 15 mph 1015.9mb 54f 53f
1:00pm 14 15 mph 1016mb 54f 53f
12:54pm 14 15 mph 1016mb 54f 53f
12:48pm 15 16 mph - - -
12:36pm 14 15 mph 1016.1mb 54f 53f
12:30pm 13 14 mph 1016.2mb 54f 53f
12:24pm 14 15 mph 1016.3mb 54f 53f
12:18pm 13 15 mph 1016.3mb 54f 53f
12:12pm 13 14 mph 1016.4mb 53f 53f
12:06pm 14 16 mph 1016.4mb 54f 53f
12:00pm 13 15 mph 1016.5mb 54f 52f
11:54am 14 15 mph 1016.5mb 54f 52f
11:48am 15 16 mph - - -
11:36am 14 16 mph 1016.5mb 54f 52f
11:30am 14 16 mph 1016.5mb 54f 52f
11:24am 14 16 mph 1016.5mb 54f 52f
11:18am 14 16 mph 1016.6mb 54f 52f
11:12am 15 16 mph 1016.6mb 54f 52f
11:06am 14 16 mph 1016.7mb 54f 52f
11:00am 13 15 mph 1016.7mb 54f 52f
10:54am 15 16 mph 1016.7mb 54f 52f
10:48am 14 16 mph - - -
10:36am 13 16 mph 1016.7mb 54f 51f
10:30am 13 16 mph 1016.7mb 54f 51f
10:24am 13 15 mph 1016.8mb 54f 51f
10:18am 11 15 mph 1016.8mb 54f 51f
10:12am 9 13 mph 1016.8mb 54f 51f
10:06am 11 14 mph 1016.8mb 54f 51f
10:00am 13 15 mph 1016.9mb 54f 51f
9:54am 11 16 mph 1016.9mb 54f 51f
9:48am 13 15 mph 1016.9mb 54f 51f
9:36am 11 14 mph 1016.9mb 54f 51f
9:30am 11 14 mph 1017mb 54f 51f
9:24am 14 16 mph 1017mb 54f 51f
9:18am 9 11 mph 1017mb 54f 51f
9:12am 8 14 mph 1017mb 54f 51f
9:06am 13 15 mph 1017mb 54f 51f
9:00am 11 14 mph 1017mb 54f 51f
8:54am 11 13 mph 1017mb 54f 51f
8:48am 13 15 mph 1017mb 53f 51f
8:36am 13 15 mph 1017mb 53f 50f
8:30am 10 15 mph 1017mb 53f 50f
8:24am 13 16 mph 1017mb 53f 50f
8:18am 9 11 mph 1017mb 53f 50f
8:12am 10 14 mph 1017.1mb 53f 50f
8:06am 10 14 mph 1017mb 54f 50f
8:00am 9 14 mph 1017.1mb 54f 50f
7:54am 13 14 mph 1017.1mb 54f 50f
7:48am 11 14 mph 1017.1mb 54f 50f
7:30am  -  mph 1017.1mb 54f 51f
7:24am  -  mph 1017.1mb 53f 50f
7:18am  -  mph 1017.1mb 53f 51f
7:12am  -  mph 1017.1mb 53f 51f
7:06am  -  mph 1017.1mb 53f 51f
7:00am  -  mph 1017.1mb 53f 51f
6:54am  -  mph 1017.1mb 53f 51f
6:48am  -  mph 1017.1mb 53f 50f
6:36am 11 15 mph 1017.1mb 53f 50f
6:30am 9 14 mph 1017.1mb 53f 50f
6:24am 11 15 mph 1017.1mb 53f 51f
6:18am 11 15 mph 1017.1mb 53f 51f
6:12am 13 15 mph 1017.1mb 53f 51f
6:06am 13 14 mph 1017.2mb 53f 51f
6:00am 10 15 mph 1017.1mb 53f 51f
5:54am 13 15 mph 1017.1mb 53f 51f
5:48am 11 13 mph - - -